createdAt,value
2022-10-07T00:00:58.695Z,10.60
2022-10-07T00:03:26.289Z,10.50
2022-10-07T00:06:00.350Z,10.50
2022-10-07T00:08:27.192Z,10.50
2022-10-07T00:10:53.973Z,10.50
2022-10-07T00:13:20.801Z,10.50
2022-10-07T00:15:47.650Z,10.50
2022-10-07T00:18:14.636Z,10.50
2022-10-07T00:20:41.404Z,10.50
2022-10-07T00:23:08.203Z,10.50
2022-10-07T00:25:38.081Z,10.50
2022-10-07T00:28:05.270Z,10.50
2022-10-07T00:30:32.520Z,10.50
2022-10-07T00:32:59.368Z,10.50
2022-10-07T00:35:26.033Z,10.40
2022-10-07T00:37:52.633Z,10.50
2022-10-07T00:40:19.244Z,10.50
2022-10-07T00:42:46.898Z,10.40
2022-10-07T00:45:16.374Z,10.40
2022-10-07T00:47:48.293Z,10.20
2022-10-07T00:50:17.206Z,10.00
2022-10-07T00:52:57.446Z,9.80
2022-10-07T00:55:25.921Z,9.70
2022-10-07T00:57:55.191Z,9.70
2022-10-07T01:00:23.936Z,9.70
2022-10-07T01:02:51.283Z,9.90
2022-10-07T01:05:18.117Z,10.10
2022-10-07T01:07:45.979Z,10.20
2022-10-07T01:10:15.454Z,10.30
2022-10-07T01:13:00.610Z,10.30
2022-10-07T01:15:39.480Z,10.20
2022-10-07T01:18:18.285Z,10.20
2022-10-07T01:20:52.033Z,10.20
2022-10-07T01:23:21.701Z,10.20
2022-10-07T01:28:48.203Z,10.10
2022-10-07T01:31:17.679Z,10.10
2022-10-07T01:33:46.289Z,10.20
2022-10-07T01:36:15.377Z,10.20
2022-10-07T01:38:45.282Z,10.20
2022-10-07T01:41:16.073Z,10.30
2022-10-07T01:43:44.858Z,10.20
2022-10-07T01:46:15.375Z,10.20
2022-10-07T01:48:42.147Z,10.10
2022-10-07T01:51:09.322Z,9.90
2022-10-07T01:53:35.909Z,9.70
2022-10-07T01:56:07.610Z,9.60
2022-10-07T01:58:47.558Z,9.50
2022-10-07T02:01:14.293Z,9.50
2022-10-07T02:03:42.372Z,9.60
2022-10-07T02:06:12.857Z,9.60
2022-10-07T02:08:43.045Z,9.60
2022-10-07T02:11:10.697Z,9.70
2022-10-07T02:13:51.777Z,9.70
2022-10-07T02:16:19.502Z,9.80
2022-10-07T02:18:48.606Z,9.80
2022-10-07T02:21:16.516Z,9.90
2022-10-07T02:23:44.833Z,9.90
2022-10-07T02:26:13.957Z,9.90
2022-10-07T02:28:42.654Z,9.90
2022-10-07T02:31:12.271Z,9.80
2022-10-07T02:33:40.934Z,9.50
2022-10-07T02:36:10.782Z,9.30
2022-10-07T02:38:39.675Z,9.30
2022-10-07T02:41:12.396Z,9.30
2022-10-07T02:43:45.535Z,9.30
2022-10-07T02:46:20.265Z,9.20
2022-10-07T02:48:51.628Z,9.20
2022-10-07T02:51:21.365Z,9.20
2022-10-07T02:53:51.229Z,9.20
2022-10-07T02:56:19.409Z,9.30
2022-10-07T02:58:46.796Z,9.30
2022-10-07T03:01:17.883Z,9.30
2022-10-07T03:03:45.693Z,9.30
2022-10-07T03:06:13.171Z,9.30
2022-10-07T03:08:40.830Z,9.30
2022-10-07T03:11:07.895Z,9.30
2022-10-07T03:13:35.216Z,9.30
2022-10-07T03:16:05.684Z,9.40
2022-10-07T03:18:32.657Z,9.30
2022-10-07T03:21:09.790Z,9.30
2022-10-07T03:23:36.982Z,9.30
2022-10-07T03:26:04.367Z,9.20
2022-10-07T03:28:35.200Z,9.20
2022-10-07T03:31:10.115Z,9.10
2022-10-07T03:33:41.307Z,9.10
2022-10-07T03:36:09.270Z,9.10
2022-10-07T03:38:38.013Z,9.00
2022-10-07T03:41:04.944Z,8.90
2022-10-07T03:43:32.460Z,8.90
2022-10-07T03:46:02.423Z,8.90
2022-10-07T03:48:31.103Z,8.80
2022-10-07T03:50:58.385Z,8.80
2022-10-07T03:53:29.546Z,8.80
2022-10-07T03:55:57.439Z,8.80
2022-10-07T03:58:24.224Z,8.80
2022-10-07T04:00:51.661Z,8.70
2022-10-07T04:03:18.862Z,8.80
2022-10-07T04:06:00.620Z,8.70
2022-10-07T04:08:32.514Z,8.70
2022-10-07T04:11:01.049Z,8.80
2022-10-07T04:13:28.501Z,8.90
2022-10-07T04:15:56.027Z,8.90
2022-10-07T04:18:23.835Z,9.00
2022-10-07T04:20:52.710Z,8.90
2022-10-07T04:23:19.456Z,8.80
2022-10-07T04:25:46.931Z,8.70
2022-10-07T04:28:21.906Z,8.60
2022-10-07T04:30:53.862Z,8.60
2022-10-07T04:33:26.372Z,8.60
2022-10-07T04:35:55.477Z,8.50
2022-10-07T04:38:27.563Z,8.50
2022-10-07T04:40:55.780Z,8.50
2022-10-07T04:43:23.581Z,8.60
2022-10-07T04:46:01.225Z,8.60
2022-10-07T04:48:27.971Z,8.60
2022-10-07T04:50:56.438Z,8.60
2022-10-07T04:53:23.949Z,8.60
2022-10-07T04:55:54.604Z,8.50
2022-10-07T04:58:23.713Z,8.50
2022-10-07T05:00:51.998Z,8.50
2022-10-07T05:03:21.703Z,8.50
2022-10-07T05:05:50.545Z,8.50
2022-10-07T05:08:19.109Z,8.50
2022-10-07T05:10:46.630Z,8.50
2022-10-07T05:13:16.817Z,8.50
2022-10-07T05:16:12.068Z,8.50
2022-10-07T05:18:39.661Z,8.50
2022-10-07T05:21:10.278Z,8.50
2022-10-07T05:23:41.150Z,8.50
2022-10-07T05:26:13.789Z,8.40
2022-10-07T05:28:44.521Z,8.40
2022-10-07T05:31:14.792Z,8.20
2022-10-07T05:33:46.078Z,8.20
2022-10-07T05:36:13.027Z,8.30
2022-10-07T05:38:40.206Z,8.30
2022-10-07T05:41:08.171Z,8.40
2022-10-07T05:43:39.659Z,8.40
2022-10-07T05:46:13.210Z,8.50
2022-10-07T05:48:48.042Z,8.50
2022-10-07T05:51:15.705Z,8.60
2022-10-07T05:53:42.965Z,8.60
2022-10-07T05:56:12.045Z,8.70
2022-10-07T05:58:39.357Z,8.70
2022-10-07T06:01:14.188Z,8.80
2022-10-07T06:03:42.324Z,8.80
2022-10-07T06:06:10.025Z,8.80
2022-10-07T06:08:36.739Z,8.90
2022-10-07T06:11:23.005Z,8.90
2022-10-07T06:13:50.997Z,8.90
2022-10-07T06:16:18.042Z,9.00
2022-10-07T06:18:45.822Z,9.00
2022-10-07T06:21:12.658Z,9.00
2022-10-07T06:23:39.340Z,9.10
2022-10-07T06:26:07.549Z,9.10
2022-10-07T06:28:37.144Z,9.10
2022-10-07T06:31:05.368Z,9.10
2022-10-07T06:33:32.162Z,9.10
2022-10-07T06:36:04.566Z,9.10
2022-10-07T06:38:31.780Z,9.10
2022-10-07T06:40:59.872Z,9.10
2022-10-07T06:43:29.309Z,9.10
2022-10-07T06:46:05.756Z,9.20
2022-10-07T06:48:33.756Z,9.30
2022-10-07T06:51:03.278Z,9.40
2022-10-07T06:53:32.188Z,9.40
2022-10-07T06:56:03.737Z,9.50
2022-10-07T06:58:33.516Z,9.50
2022-10-07T07:01:04.054Z,9.50
2022-10-07T07:03:32.080Z,9.60
2022-10-07T07:06:02.049Z,9.70
2022-10-07T07:08:32.922Z,9.70
2022-10-07T07:11:26.106Z,9.70
2022-10-07T07:13:54.221Z,9.70
2022-10-07T07:16:21.411Z,9.70
2022-10-07T07:18:52.648Z,9.80
2022-10-07T07:21:20.726Z,9.80
2022-10-07T07:23:47.750Z,9.90
2022-10-07T07:26:14.382Z,9.90
2022-10-07T07:28:41.602Z,9.90
2022-10-07T07:31:09.643Z,10.00
2022-10-07T07:33:39.917Z,10.00
2022-10-07T07:36:15.431Z,10.10
2022-10-07T07:38:51.193Z,10.10
2022-10-07T07:41:18.901Z,10.20
2022-10-07T07:43:48.796Z,10.20
2022-10-07T07:46:15.512Z,10.30
2022-10-07T07:48:42.166Z,10.40
2022-10-07T07:51:08.969Z,10.40
2022-10-07T07:53:37.040Z,10.50
2022-10-07T07:56:03.715Z,10.70
2022-10-07T07:58:30.325Z,10.90
2022-10-07T08:00:58.821Z,10.90
2022-10-07T08:03:25.948Z,11.00
2022-10-07T08:05:52.673Z,11.20
2022-10-07T08:08:19.315Z,11.50
2022-10-07T08:10:51.030Z,11.80
2022-10-07T08:13:18.694Z,12.00
2022-10-07T08:15:45.382Z,11.90
2022-10-07T08:18:12.087Z,11.90
2022-10-07T08:20:39.684Z,11.90
2022-10-07T08:23:07.200Z,12.10
2022-10-07T08:25:33.930Z,12.30
2022-10-07T08:28:03.715Z,13.40
2022-10-07T08:30:31.887Z,12.50
2022-10-07T08:33:01.412Z,12.40
2022-10-07T08:35:28.245Z,12.50
2022-10-07T08:37:55.001Z,12.80
2022-10-07T08:40:21.646Z,13.00
2022-10-07T08:42:48.339Z,13.00
2022-10-07T08:45:20.136Z,13.10
2022-10-07T08:47:47.847Z,13.30
2022-10-07T08:50:19.759Z,13.30
2022-10-07T08:52:50.848Z,13.40
2022-10-07T08:55:37.782Z,13.60
2022-10-07T08:58:07.360Z,13.70
2022-10-07T09:00:39.795Z,13.80
2022-10-07T09:03:24.980Z,13.80
2022-10-07T09:05:53.288Z,14.00
2022-10-07T09:08:32.857Z,14.10
2022-10-07T09:11:15.446Z,14.20
2022-10-07T09:13:48.624Z,14.30
2022-10-07T09:16:17.189Z,14.40
2022-10-07T09:18:45.965Z,14.40
2022-10-07T09:21:16.634Z,14.40
2022-10-07T09:23:43.354Z,14.50
2022-10-07T09:26:11.944Z,14.60
2022-10-07T09:28:38.901Z,14.70
2022-10-07T09:31:06.276Z,14.80
2022-10-07T09:33:36.957Z,14.90
2022-10-07T09:36:07.851Z,15.00
2022-10-07T09:38:39.602Z,15.10
2022-10-07T09:41:31.226Z,14.90
2022-10-07T09:43:59.428Z,15.30
2022-10-07T09:46:31.253Z,15.30
2022-10-07T09:48:59.252Z,15.40
2022-10-07T09:51:27.486Z,15.50
2022-10-07T09:54:02.957Z,15.50
2022-10-07T09:56:35.783Z,15.50
2022-10-07T09:59:16.084Z,15.50
2022-10-07T10:01:48.303Z,15.60
2022-10-07T10:04:16.678Z,15.60
2022-10-07T10:06:50.580Z,15.80
2022-10-07T10:09:22.273Z,15.80
2022-10-07T10:12:07.772Z,15.90
2022-10-07T10:14:43.922Z,15.90
2022-10-07T10:17:29.156Z,15.90
2022-10-07T10:19:56.295Z,15.90
2022-10-07T10:22:27.136Z,15.90
2022-10-07T10:25:13.260Z,16.00
2022-10-07T10:27:55.377Z,16.00
2022-10-07T10:30:22.395Z,16.10
2022-10-07T10:33:07.806Z,16.10
2022-10-07T10:35:42.067Z,16.20
2022-10-07T10:38:08.654Z,16.20
2022-10-07T10:40:37.988Z,16.30
2022-10-07T10:43:28.840Z,16.40
2022-10-07T10:46:14.052Z,16.50
2022-10-07T10:48:46.719Z,16.50
2022-10-07T10:51:34.099Z,16.60
2022-10-07T10:54:06.810Z,16.60
2022-10-07T10:56:34.220Z,16.80
2022-10-07T10:59:09.362Z,16.80
2022-10-07T11:01:40.746Z,16.90
2022-10-07T11:04:10.120Z,17.00
2022-10-07T11:06:38.224Z,17.10
2022-10-07T11:09:06.098Z,17.20
2022-10-07T11:11:33.655Z,17.20
2022-10-07T11:14:01.872Z,17.10
2022-10-07T11:16:36.431Z,17.00
2022-10-07T11:19:12.609Z,16.90
2022-10-07T11:21:41.131Z,16.90
2022-10-07T11:24:19.655Z,16.80
2022-10-07T11:26:58.751Z,16.90
2022-10-07T11:29:38.864Z,16.80
2022-10-07T11:32:09.916Z,16.80
2022-10-07T11:34:55.993Z,16.80
2022-10-07T11:37:41.354Z,16.80
2022-10-07T11:40:08.154Z,16.80
2022-10-07T11:42:40.406Z,16.90
2022-10-07T11:45:08.632Z,16.90
2022-10-07T11:47:37.968Z,17.00
2022-10-07T11:50:04.561Z,17.00
2022-10-07T11:52:35.915Z,17.10
2022-10-07T11:55:07.305Z,17.10
2022-10-07T11:57:35.445Z,17.10
2022-10-07T12:00:06.109Z,17.10
2022-10-07T12:02:41.211Z,17.10
2022-10-07T12:05:29.004Z,17.10
2022-10-07T12:07:57.056Z,17.00
2022-10-07T12:10:26.812Z,17.00
2022-10-07T12:12:54.945Z,17.00
2022-10-07T12:15:24.639Z,17.00
2022-10-07T12:18:03.702Z,17.00
2022-10-07T12:20:34.839Z,17.00
2022-10-07T12:23:16.884Z,17.00
2022-10-07T12:25:53.628Z,17.00
2022-10-07T12:28:28.230Z,17.00
2022-10-07T12:31:00.169Z,17.10
2022-10-07T12:33:34.001Z,17.20
2022-10-07T12:36:19.043Z,17.30
2022-10-07T12:38:46.061Z,17.10
2022-10-07T12:41:31.345Z,17.10
2022-10-07T12:44:04.444Z,17.10
2022-10-07T12:46:33.397Z,17.20
2022-10-07T12:49:01.898Z,17.20
2022-10-07T12:51:30.446Z,17.20
2022-10-07T12:53:59.026Z,17.20
2022-10-07T12:56:28.717Z,17.20
2022-10-07T12:59:25.398Z,17.30
2022-10-07T13:02:11.230Z,17.30
2022-10-07T13:04:38.434Z,17.30
2022-10-07T13:07:23.475Z,17.40
2022-10-07T13:10:05.324Z,17.40
2022-10-07T13:12:31.905Z,17.50
2022-10-07T13:15:03.118Z,17.40
2022-10-07T13:17:42.011Z,17.40
2022-10-07T13:20:14.836Z,17.40
2022-10-07T13:22:46.642Z,17.50
2022-10-07T13:25:14.051Z,17.50
2022-10-07T13:27:44.728Z,17.50
2022-10-07T13:30:31.308Z,17.50
2022-10-07T13:33:11.937Z,17.40
2022-10-07T13:35:39.758Z,17.40
2022-10-07T13:38:06.557Z,17.50
2022-10-07T13:40:36.138Z,17.50
2022-10-07T13:43:06.122Z,17.40
2022-10-07T13:45:40.645Z,17.50
2022-10-07T13:48:15.957Z,17.50
2022-10-07T13:50:43.261Z,17.50
2022-10-07T13:53:36.124Z,17.40
2022-10-07T13:56:17.238Z,17.30
2022-10-07T13:58:43.855Z,17.30
2022-10-07T14:01:10.565Z,17.30
2022-10-07T14:03:57.112Z,17.20
2022-10-07T14:06:36.066Z,17.20
2022-10-07T14:09:02.673Z,17.20
2022-10-07T14:11:30.689Z,17.10
2022-10-07T14:13:59.405Z,17.10
2022-10-07T14:16:26.182Z,17.00
2022-10-07T14:18:52.807Z,17.00
2022-10-07T14:21:19.457Z,17.00
2022-10-07T14:23:46.975Z,17.00
2022-10-07T14:26:41.288Z,17.00
2022-10-07T14:29:26.482Z,17.00
2022-10-07T14:32:41.028Z,16.90
2022-10-07T14:35:20.659Z,16.90
2022-10-07T14:37:47.592Z,16.80
2022-10-07T14:40:18.446Z,16.80
2022-10-07T14:42:45.331Z,16.70
2022-10-07T14:45:17.455Z,16.70
2022-10-07T14:47:44.950Z,16.70
2022-10-07T14:50:12.387Z,16.60
2022-10-07T14:52:44.307Z,16.50
2022-10-07T14:55:15.997Z,16.50
2022-10-07T14:57:43.069Z,16.40
2022-10-07T15:00:14.541Z,16.40
2022-10-07T15:02:41.141Z,16.30
2022-10-07T15:05:08.062Z,16.30
2022-10-07T15:07:34.672Z,16.20
2022-10-07T15:10:01.350Z,16.10
2022-10-07T15:12:28.934Z,16.10
2022-10-07T15:14:55.518Z,16.10
2022-10-07T15:17:22.751Z,16.10
2022-10-07T15:19:51.216Z,16.10
2022-10-07T15:22:18.845Z,16.00
2022-10-07T15:24:45.437Z,15.90
2022-10-07T15:27:12.055Z,15.90
2022-10-07T15:29:39.312Z,15.80
2022-10-07T15:32:07.433Z,15.70
2022-10-07T15:34:34.029Z,15.60
2022-10-07T15:37:00.749Z,15.60
2022-10-07T15:39:27.327Z,15.50
2022-10-07T15:41:53.963Z,15.50
2022-10-07T15:44:22.232Z,15.40
2022-10-07T15:46:50.023Z,15.40
2022-10-07T15:49:19.675Z,15.30
2022-10-07T15:51:46.721Z,15.20
2022-10-07T15:54:13.522Z,15.20
2022-10-07T15:56:40.247Z,15.10
2022-10-07T15:59:06.896Z,15.00
2022-10-07T16:01:33.522Z,14.80
2022-10-07T16:04:01.030Z,14.50
2022-10-07T16:06:31.257Z,14.40
2022-10-07T16:08:58.297Z,14.30
2022-10-07T16:11:26.102Z,14.30
2022-10-07T16:13:52.889Z,14.20
2022-10-07T16:16:23.618Z,14.10
2022-10-07T16:18:50.938Z,14.10
2022-10-07T16:21:18.951Z,14.10
2022-10-07T16:23:46.217Z,14.00
2022-10-07T16:26:14.522Z,13.90
2022-10-07T16:29:06.826Z,13.80
2022-10-07T16:31:34.414Z,13.80
2022-10-07T16:34:01.289Z,13.70
2022-10-07T16:36:28.100Z,13.70
2022-10-07T16:38:55.234Z,13.60
2022-10-07T16:41:21.971Z,13.70
2022-10-07T16:43:48.784Z,13.60
2022-10-07T16:46:19.985Z,13.60
2022-10-07T16:48:47.940Z,13.50
2022-10-07T16:51:18.916Z,13.50
2022-10-07T16:53:46.612Z,13.50
2022-10-07T16:56:13.750Z,13.40
2022-10-07T16:58:40.450Z,13.40
2022-10-07T17:01:12.676Z,13.40
2022-10-07T17:03:40.437Z,13.40
2022-10-07T17:06:08.021Z,13.30
2022-10-07T17:08:40.389Z,13.30
2022-10-07T17:11:10.014Z,13.30
2022-10-07T17:13:37.962Z,13.20
2022-10-07T17:16:05.786Z,13.20
2022-10-07T17:18:33.904Z,13.20
2022-10-07T17:21:00.959Z,13.20
2022-10-07T17:23:27.776Z,13.10
2022-10-07T17:25:54.871Z,13.00
2022-10-07T17:28:24.324Z,13.10
2022-10-07T17:30:54.802Z,13.00
2022-10-07T17:33:21.623Z,13.00
2022-10-07T17:35:48.285Z,12.90
2022-10-07T17:38:15.026Z,12.90
2022-10-07T17:40:43.496Z,12.90
2022-10-07T17:43:10.210Z,12.90
2022-10-07T17:45:37.061Z,12.80
2022-10-07T17:48:04.032Z,12.80
2022-10-07T17:50:31.535Z,12.70
2022-10-07T17:53:00.373Z,12.70
2022-10-07T17:55:27.102Z,12.70
2022-10-07T17:57:53.707Z,12.70
2022-10-07T18:00:20.367Z,12.70
2022-10-07T18:02:49.357Z,12.60
2022-10-07T18:05:16.289Z,12.50
2022-10-07T18:07:43.914Z,12.50
2022-10-07T18:10:10.986Z,12.40
2022-10-07T18:12:56.166Z,12.40
2022-10-07T18:15:23.290Z,12.30
2022-10-07T18:17:51.420Z,12.10
2022-10-07T18:20:18.920Z,12.00
2022-10-07T18:22:45.715Z,11.90
2022-10-07T18:25:12.864Z,11.90
2022-10-07T18:27:39.961Z,11.90
2022-10-07T18:30:06.997Z,11.80
2022-10-07T18:32:33.702Z,11.80
2022-10-07T18:35:00.632Z,11.70
2022-10-07T18:37:27.361Z,11.70
2022-10-07T18:39:54.074Z,11.70
2022-10-07T18:42:20.928Z,11.70
2022-10-07T18:44:47.904Z,11.70
2022-10-07T18:47:14.662Z,11.70
2022-10-07T18:49:41.710Z,11.80
2022-10-07T18:52:08.819Z,11.70
2022-10-07T18:54:35.480Z,11.50
2022-10-07T18:57:02.311Z,11.50
2022-10-07T18:59:28.953Z,11.50
2022-10-07T19:01:55.585Z,11.60
2022-10-07T19:04:22.316Z,11.60
2022-10-07T19:07:48.708Z,11.60
2022-10-07T19:10:15.514Z,11.50
2022-10-07T19:13:00.870Z,11.40
2022-10-07T19:15:27.709Z,11.20
2022-10-07T19:17:54.395Z,11.10
2022-10-07T19:20:21.065Z,11.10
2022-10-07T19:22:47.727Z,11.10
2022-10-07T19:25:33.245Z,11.20
2022-10-07T19:27:59.942Z,11.20
2022-10-07T19:30:26.639Z,11.60
2022-10-07T19:32:53.318Z,11.00
2022-10-07T19:35:20.485Z,10.90
2022-10-07T19:37:47.407Z,10.70
2022-10-07T19:40:14.353Z,10.70
2022-10-07T19:42:41.017Z,10.80
2022-10-07T19:45:09.242Z,10.80
2022-10-07T19:47:35.932Z,10.80
2022-10-07T19:50:03.041Z,10.80
2022-10-07T19:52:29.738Z,10.70
2022-10-07T19:54:56.678Z,10.70
2022-10-07T19:57:23.493Z,10.70
2022-10-07T19:59:50.206Z,10.80
2022-10-07T20:02:17.976Z,10.80
2022-10-07T20:04:44.805Z,10.90
2022-10-07T20:07:11.502Z,10.90
2022-10-07T20:09:38.267Z,10.80
2022-10-07T20:12:05.165Z,10.60
2022-10-07T20:14:32.949Z,10.60
2022-10-07T20:16:59.890Z,10.60
2022-10-07T20:19:26.666Z,10.60
2022-10-07T20:21:53.429Z,10.70
2022-10-07T20:24:20.165Z,10.80
2022-10-07T20:27:13.213Z,10.80
2022-10-07T20:29:57.058Z,10.80
2022-10-07T20:32:28.746Z,10.80
2022-10-07T20:34:55.482Z,10.80
2022-10-07T20:37:22.563Z,10.70
2022-10-07T20:40:08.240Z,10.70
2022-10-07T20:42:35.133Z,10.70
2022-10-07T20:45:03.383Z,10.70
2022-10-07T20:47:33.549Z,10.70
2022-10-07T20:50:02.340Z,10.70
2022-10-07T20:52:31.994Z,10.70
2022-10-07T20:54:58.851Z,10.70
2022-10-07T20:57:38.194Z,10.60
2022-10-07T21:00:15.785Z,10.50
2022-10-07T21:02:44.216Z,10.50
2022-10-07T21:05:11.336Z,10.50
2022-10-07T21:07:38.018Z,10.50
2022-10-07T21:10:05.020Z,10.50
2022-10-07T21:12:32.420Z,10.60
2022-10-07T21:15:01.070Z,10.60
2022-10-07T21:17:27.773Z,10.60
2022-10-07T21:19:55.721Z,10.60
2022-10-07T21:22:22.491Z,10.60
2022-10-07T21:24:49.762Z,10.60
2022-10-07T21:27:16.446Z,10.60
2022-10-07T21:29:46.839Z,10.50
2022-10-07T21:32:15.369Z,10.50
2022-10-07T21:34:43.549Z,10.40
2022-10-07T21:37:10.226Z,10.40
2022-10-07T21:39:38.067Z,10.30
2022-10-07T21:42:04.869Z,10.30
2022-10-07T21:44:33.312Z,10.30
2022-10-07T21:47:00.763Z,10.30
2022-10-07T21:49:27.378Z,10.40
2022-10-07T21:51:54.089Z,10.40
2022-10-07T21:54:20.996Z,10.40
2022-10-07T21:56:47.966Z,10.30
2022-10-07T21:59:14.691Z,10.30
2022-10-07T22:01:42.562Z,10.30
2022-10-07T22:04:18.276Z,10.40
2022-10-07T22:07:04.116Z,10.40
2022-10-07T22:09:31.311Z,10.40
2022-10-07T22:11:58.274Z,10.40
2022-10-07T22:14:24.953Z,10.40
2022-10-07T22:16:51.630Z,10.50
2022-10-07T22:19:18.378Z,10.50
2022-10-07T22:21:45.810Z,10.50
2022-10-07T22:24:13.850Z,10.80
2022-10-07T22:26:45.304Z,10.80
2022-10-07T22:29:14.223Z,10.80
2022-10-07T22:31:41.806Z,10.70
2022-10-07T22:34:08.678Z,10.70
2022-10-07T22:36:36.800Z,10.60
2022-10-07T22:39:04.510Z,10.60
2022-10-07T22:41:32.257Z,10.60
2022-10-07T22:43:59.462Z,10.70
2022-10-07T22:46:28.036Z,10.60
2022-10-07T22:48:56.499Z,10.50
2022-10-07T22:51:27.782Z,10.50
2022-10-07T22:53:55.644Z,10.40
2022-10-07T22:56:24.260Z,10.40
2022-10-07T22:58:57.825Z,10.40
2022-10-07T23:01:25.064Z,10.50
2022-10-07T23:03:52.893Z,10.50
2022-10-07T23:06:20.059Z,10.60
2022-10-07T23:08:48.211Z,10.50
2022-10-07T23:11:18.126Z,10.60
2022-10-07T23:13:45.912Z,10.60
2022-10-07T23:16:16.504Z,10.60
2022-10-07T23:18:44.797Z,10.60
2022-10-07T23:21:21.669Z,10.60
2022-10-07T23:23:51.914Z,10.70
2022-10-07T23:26:22.813Z,10.70
2022-10-07T23:28:51.392Z,10.70
2022-10-07T23:31:20.791Z,10.70
2022-10-07T23:33:49.458Z,10.80
2022-10-07T23:36:17.538Z,10.70
2022-10-07T23:38:47.093Z,10.70
2022-10-07T23:41:16.892Z,10.70
2022-10-07T23:43:43.630Z,10.80
2022-10-07T23:46:13.254Z,10.80
2022-10-07T23:48:41.126Z,10.80
2022-10-07T23:51:10.444Z,10.70
2022-10-07T23:53:37.196Z,10.80
2022-10-07T23:56:03.912Z,10.90
2022-10-07T23:58:31.996Z,10.80
